sensor_id;sensor_type;location;lat;lon;timestamp;P1;durP1;ratioP1;P2;durP2;ratioP2
3918;SDS011;1974;48.670;8.994;2023-06-10T00:00:02;3.70;;;3.20;;
3918;SDS011;1974;48.670;8.994;2023-06-10T00:02:32;6.30;;;3.40;;
3918;SDS011;1974;48.670;8.994;2023-06-10T00:04:58;3.40;;;3.10;;
3918;SDS011;1974;48.670;8.994;2023-06-10T00:07:25;3.93;;;3.60;;
3918;SDS011;1974;48.670;8.994;2023-06-10T00:09:52;5.90;;;3.80;;
3918;SDS011;1974;48.670;8.994;2023-06-10T00:12:20;7.37;;;3.97;;
3918;SDS011;1974;48.670;8.994;2023-06-10T00:14:48;3.27;;;2.83;;
3918;SDS011;1974;48.670;8.994;2023-06-10T00:17:16;3.60;;;3.30;;
3918;SDS011;1974;48.670;8.994;2023-06-10T00:19:43;4.03;;;3.50;;
3918;SDS011;1974;48.670;8.994;2023-06-10T00:22:12;6.37;;;3.80;;
3918;SDS011;1974;48.670;8.994;2023-06-10T00:24:39;3.83;;;3.50;;
3918;SDS011;1974;48.670;8.994;2023-06-10T00:27:07;4.00;;;3.53;;
3918;SDS011;1974;48.670;8.994;2023-06-10T00:29:33;7.03;;;3.37;;
3918;SDS011;1974;48.670;8.994;2023-06-10T00:32:02;4.33;;;3.23;;
3918;SDS011;1974;48.670;8.994;2023-06-10T00:34:29;4.10;;;3.00;;
3918;SDS011;1974;48.670;8.994;2023-06-10T00:36:57;3.63;;;3.13;;
3918;SDS011;1974;48.670;8.994;2023-06-10T00:39:24;4.77;;;3.17;;
3918;SDS011;1974;48.670;8.994;2023-06-10T00:41:51;5.57;;;3.97;;
3918;SDS011;1974;48.670;8.994;2023-06-10T00:44:17;3.77;;;3.47;;
3918;SDS011;1974;48.670;8.994;2023-06-10T00:46:44;3.77;;;3.47;;
3918;SDS011;1974;48.670;8.994;2023-06-10T00:49:13;6.47;;;3.30;;
3918;SDS011;1974;48.670;8.994;2023-06-10T00:51:40;5.63;;;4.00;;
3918;SDS011;1974;48.670;8.994;2023-06-10T00:54:07;5.57;;;3.70;;
3918;SDS011;1974;48.670;8.994;2023-06-10T00:56:34;5.60;;;3.57;;
3918;SDS011;1974;48.670;8.994;2023-06-10T00:59:02;3.33;;;3.00;;
3918;SDS011;1974;48.670;8.994;2023-06-10T01:01:29;4.23;;;3.83;;
3918;SDS011;1974;48.670;8.994;2023-06-10T01:03:57;5.77;;;4.43;;
3918;SDS011;1974;48.670;8.994;2023-06-10T01:06:28;4.97;;;4.07;;
3918;SDS011;1974;48.670;8.994;2023-06-10T01:09:04;4.57;;;3.80;;
3918;SDS011;1974;48.670;8.994;2023-06-10T01:11:40;4.73;;;2.93;;
3918;SDS011;1974;48.670;8.994;2023-06-10T01:14:13;3.93;;;3.53;;
3918;SDS011;1974;48.670;8.994;2023-06-10T01:16:40;6.20;;;3.63;;
3918;SDS011;1974;48.670;8.994;2023-06-10T01:19:07;4.23;;;3.50;;
3918;SDS011;1974;48.670;8.994;2023-06-10T01:21:36;3.57;;;3.27;;
3918;SDS011;1974;48.670;8.994;2023-06-10T01:24:05;3.10;;;2.90;;
3918;SDS011;1974;48.670;8.994;2023-06-10T01:26:33;3.10;;;2.80;;
3918;SDS011;1974;48.670;8.994;2023-06-10T01:29:03;4.87;;;3.70;;
3918;SDS011;1974;48.670;8.994;2023-06-10T01:31:36;3.70;;;3.37;;
3918;SDS011;1974;48.670;8.994;2023-06-10T01:34:09;5.83;;;3.57;;
3918;SDS011;1974;48.670;8.994;2023-06-10T01:36:39;5.07;;;3.67;;
3918;SDS011;1974;48.670;8.994;2023-06-10T01:39:07;4.60;;;3.03;;
3918;SDS011;1974;48.670;8.994;2023-06-10T01:41:36;3.60;;;2.90;;
3918;SDS011;1974;48.670;8.994;2023-06-10T01:44:04;3.37;;;3.07;;
3918;SDS011;1974;48.670;8.994;2023-06-10T01:46:30;5.33;;;2.83;;
3918;SDS011;1974;48.670;8.994;2023-06-10T01:48:57;3.97;;;2.60;;
3918;SDS011;1974;48.670;8.994;2023-06-10T01:51:24;4.00;;;3.30;;
3918;SDS011;1974;48.670;8.994;2023-06-10T01:53:52;2.90;;;2.70;;
3918;SDS011;1974;48.670;8.994;2023-06-10T01:56:19;4.10;;;3.70;;
3918;SDS011;1974;48.670;8.994;2023-06-10T01:58:46;3.37;;;3.07;;
3918;SDS011;1974;48.670;8.994;2023-06-10T02:01:13;3.60;;;2.93;;
3918;SDS011;1974;48.670;8.994;2023-06-10T02:03:40;5.87;;;4.10;;
3918;SDS011;1974;48.670;8.994;2023-06-10T02:06:07;4.27;;;3.53;;
3918;SDS011;1974;48.670;8.994;2023-06-10T02:08:34;5.07;;;3.13;;
3918;SDS011;1974;48.670;8.994;2023-06-10T02:11:02;7.33;;;3.97;;
3918;SDS011;1974;48.670;8.994;2023-06-10T02:13:28;5.00;;;4.27;;
3918;SDS011;1974;48.670;8.994;2023-06-10T02:15:55;3.93;;;3.53;;
3918;SDS011;1974;48.670;8.994;2023-06-10T02:18:22;5.47;;;3.83;;
3918;SDS011;1974;48.670;8.994;2023-06-10T02:20:49;3.70;;;2.70;;
3918;SDS011;1974;48.670;8.994;2023-06-10T02:23:15;6.10;;;4.00;;
3918;SDS011;1974;48.670;8.994;2023-06-10T02:25:42;4.23;;;3.50;;
3918;SDS011;1974;48.670;8.994;2023-06-10T02:28:10;4.03;;;3.60;;
3918;SDS011;1974;48.670;8.994;2023-06-10T02:30:38;4.20;;;3.50;;
3918;SDS011;1974;48.670;8.994;2023-06-10T02:33:06;3.10;;;2.80;;
3918;SDS011;1974;48.670;8.994;2023-06-10T02:35:34;5.17;;;4.53;;
3918;SDS011;1974;48.670;8.994;2023-06-10T02:38:01;5.30;;;4.30;;
3918;SDS011;1974;48.670;8.994;2023-06-10T02:40:29;4.27;;;3.17;;
3918;SDS011;1974;48.670;8.994;2023-06-10T02:42:56;4.13;;;3.33;;
3918;SDS011;1974;48.670;8.994;2023-06-10T02:45:24;4.87;;;3.97;;
3918;SDS011;1974;48.670;8.994;2023-06-10T02:47:51;3.57;;;3.10;;
3918;SDS011;1974;48.670;8.994;2023-06-10T02:50:18;6.00;;;3.67;;
3918;SDS011;1974;48.670;8.994;2023-06-10T02:52:45;4.40;;;3.20;;
3918;SDS011;1974;48.670;8.994;2023-06-10T02:55:12;3.90;;;3.50;;
3918;SDS011;1974;48.670;8.994;2023-06-10T02:57:38;6.93;;;3.53;;
3918;SDS011;1974;48.670;8.994;2023-06-10T03:00:07;3.47;;;3.17;;
3918;SDS011;1974;48.670;8.994;2023-06-10T03:02:37;7.63;;;3.80;;
3918;SDS011;1974;48.670;8.994;2023-06-10T03:05:04;5.33;;;3.90;;
3918;SDS011;1974;48.670;8.994;2023-06-10T03:07:34;4.10;;;3.17;;
3918;SDS011;1974;48.670;8.994;2023-06-10T03:10:01;3.67;;;3.13;;
3918;SDS011;1974;48.670;8.994;2023-06-10T03:12:29;3.73;;;3.20;;
3918;SDS011;1974;48.670;8.994;2023-06-10T03:14:55;3.33;;;2.27;;
3918;SDS011;1974;48.670;8.994;2023-06-10T03:17:22;3.40;;;3.10;;
3918;SDS011;1974;48.670;8.994;2023-06-10T03:19:50;4.23;;;3.70;;
3918;SDS011;1974;48.670;8.994;2023-06-10T03:22:17;3.30;;;2.70;;
3918;SDS011;1974;48.670;8.994;2023-06-10T03:24:44;4.80;;;3.67;;
3918;SDS011;1974;48.670;8.994;2023-06-10T03:27:11;3.50;;;3.20;;
3918;SDS011;1974;48.670;8.994;2023-06-10T03:29:38;3.30;;;2.87;;
3918;SDS011;1974;48.670;8.994;2023-06-10T03:32:05;4.83;;;3.00;;
3918;SDS011;1974;48.670;8.994;2023-06-10T03:34:32;4.10;;;3.40;;
3918;SDS011;1974;48.670;8.994;2023-06-10T03:37:01;3.50;;;2.97;;
3918;SDS011;1974;48.670;8.994;2023-06-10T03:39:28;3.17;;;2.53;;
3918;SDS011;1974;48.670;8.994;2023-06-10T03:41:55;4.53;;;3.90;;
3918;SDS011;1974;48.670;8.994;2023-06-10T03:44:22;4.03;;;2.90;;
3918;SDS011;1974;48.670;8.994;2023-06-10T03:46:49;4.10;;;3.70;;
3918;SDS011;1974;48.670;8.994;2023-06-10T03:49:15;5.70;;;4.30;;
3918;SDS011;1974;48.670;8.994;2023-06-10T03:51:42;5.37;;;4.00;;
3918;SDS011;1974;48.670;8.994;2023-06-10T03:54:11;5.60;;;3.70;;
3918;SDS011;1974;48.670;8.994;2023-06-10T03:56:38;9.50;;;2.80;;
3918;SDS011;1974;48.670;8.994;2023-06-10T03:59:05;4.10;;;3.43;;
3918;SDS011;1974;48.670;8.994;2023-06-10T04:01:32;4.33;;;3.23;;
3918;SDS011;1974;48.670;8.994;2023-06-10T04:04:00;5.20;;;3.60;;
3918;SDS011;1974;48.670;8.994;2023-06-10T04:06:27;6.30;;;3.70;;
3918;SDS011;1974;48.670;8.994;2023-06-10T04:08:54;3.87;;;3.57;;
3918;SDS011;1974;48.670;8.994;2023-06-10T04:11:23;6.60;;;4.33;;
3918;SDS011;1974;48.670;8.994;2023-06-10T04:13:50;4.83;;;3.80;;
3918;SDS011;1974;48.670;8.994;2023-06-10T04:16:17;3.70;;;3.43;;
3918;SDS011;1974;48.670;8.994;2023-06-10T04:18:44;9.03;;;4.10;;
3918;SDS011;1974;48.670;8.994;2023-06-10T04:21:10;5.20;;;4.40;;
3918;SDS011;1974;48.670;8.994;2023-06-10T04:23:37;4.50;;;3.43;;
3918;SDS011;1974;48.670;8.994;2023-06-10T04:26:05;5.80;;;3.80;;
3918;SDS011;1974;48.670;8.994;2023-06-10T04:28:33;5.77;;;3.53;;
3918;SDS011;1974;48.670;8.994;2023-06-10T04:31:01;4.07;;;3.50;;
3918;SDS011;1974;48.670;8.994;2023-06-10T04:33:29;6.27;;;3.57;;
3918;SDS011;1974;48.670;8.994;2023-06-10T04:35:55;8.30;;;3.37;;
3918;SDS011;1974;48.670;8.994;2023-06-10T04:38:22;6.87;;;3.90;;
3918;SDS011;1974;48.670;8.994;2023-06-10T04:40:49;3.43;;;3.00;;
3918;SDS011;1974;48.670;8.994;2023-06-10T04:43:16;4.07;;;2.33;;
3918;SDS011;1974;48.670;8.994;2023-06-10T04:45:44;4.20;;;3.37;;
3918;SDS011;1974;48.670;8.994;2023-06-10T04:48:12;4.73;;;3.97;;
3918;SDS011;1974;48.670;8.994;2023-06-10T04:50:38;5.00;;;2.80;;
3918;SDS011;1974;48.670;8.994;2023-06-10T04:53:05;4.50;;;3.33;;
3918;SDS011;1974;48.670;8.994;2023-06-10T04:55:32;2.83;;;2.60;;
3918;SDS011;1974;48.670;8.994;2023-06-10T04:57:59;3.70;;;3.30;;
3918;SDS011;1974;48.670;8.994;2023-06-10T05:00:26;3.77;;;3.07;;
3918;SDS011;1974;48.670;8.994;2023-06-10T05:02:54;5.93;;;3.70;;
3918;SDS011;1974;48.670;8.994;2023-06-10T05:05:21;3.27;;;2.90;;
3918;SDS011;1974;48.670;8.994;2023-06-10T05:07:47;5.57;;;3.53;;
3918;SDS011;1974;48.670;8.994;2023-06-10T05:10:14;4.30;;;2.87;;
3918;SDS011;1974;48.670;8.994;2023-06-10T05:12:41;4.10;;;3.33;;
3918;SDS011;1974;48.670;8.994;2023-06-10T05:15:08;3.33;;;3.00;;
3918;SDS011;1974;48.670;8.994;2023-06-10T05:17:36;3.40;;;3.10;;
3918;SDS011;1974;48.670;8.994;2023-06-10T05:20:04;4.20;;;3.33;;
3918;SDS011;1974;48.670;8.994;2023-06-10T05:22:33;3.37;;;3.07;;
3918;SDS011;1974;48.670;8.994;2023-06-10T05:25:00;3.73;;;2.60;;
3918;SDS011;1974;48.670;8.994;2023-06-10T05:27:27;3.00;;;2.63;;
3918;SDS011;1974;48.670;8.994;2023-06-10T05:29:54;3.60;;;2.60;;
3918;SDS011;1974;48.670;8.994;2023-06-10T05:32:21;5.10;;;2.90;;
3918;SDS011;1974;48.670;8.994;2023-06-10T05:34:48;4.17;;;2.83;;
3918;SDS011;1974;48.670;8.994;2023-06-10T05:37:16;3.40;;;2.27;;
3918;SDS011;1974;48.670;8.994;2023-06-10T05:39:43;3.40;;;2.80;;
3918;SDS011;1974;48.670;8.994;2023-06-10T05:42:09;3.70;;;2.50;;
3918;SDS011;1974;48.670;8.994;2023-06-10T05:44:36;3.53;;;3.10;;
3918;SDS011;1974;48.670;8.994;2023-06-10T05:47:03;3.03;;;2.20;;
3918;SDS011;1974;48.670;8.994;2023-06-10T05:49:30;3.23;;;2.17;;
3918;SDS011;1974;48.670;8.994;2023-06-10T05:51:57;3.57;;;2.27;;
3918;SDS011;1974;48.670;8.994;2023-06-10T05:54:25;2.80;;;2.47;;
3918;SDS011;1974;48.670;8.994;2023-06-10T05:56:52;3.50;;;2.53;;
3918;SDS011;1974;48.670;8.994;2023-06-10T05:59:19;2.80;;;2.27;;
3918;SDS011;1974;48.670;8.994;2023-06-10T06:01:47;2.90;;;2.00;;
3918;SDS011;1974;48.670;8.994;2023-06-10T06:04:14;2.00;;;1.90;;
3918;SDS011;1974;48.670;8.994;2023-06-10T06:06:41;4.53;;;2.60;;
3918;SDS011;1974;48.670;8.994;2023-06-10T06:09:08;3.47;;;3.17;;
3918;SDS011;1974;48.670;8.994;2023-06-10T06:11:36;3.20;;;2.70;;
3918;SDS011;1974;48.670;8.994;2023-06-10T06:14:03;2.90;;;2.60;;
3918;SDS011;1974;48.670;8.994;2023-06-10T06:16:30;4.27;;;2.60;;
3918;SDS011;1974;48.670;8.994;2023-06-10T06:18:57;3.97;;;3.03;;
3918;SDS011;1974;48.670;8.994;2023-06-10T06:21:23;3.40;;;2.70;;
3918;SDS011;1974;48.670;8.994;2023-06-10T06:23:50;2.90;;;2.60;;
3918;SDS011;1974;48.670;8.994;2023-06-10T06:26:17;2.50;;;2.30;;
3918;SDS011;1974;48.670;8.994;2023-06-10T06:28:45;2.97;;;2.67;;
3918;SDS011;1974;48.670;8.994;2023-06-10T06:31:12;4.03;;;2.83;;
3918;SDS011;1974;48.670;8.994;2023-06-10T06:33:39;6.07;;;3.20;;
3918;SDS011;1974;48.670;8.994;2023-06-10T06:36:06;3.60;;;2.30;;
3918;SDS011;1974;48.670;8.994;2023-06-10T06:38:32;3.50;;;2.47;;
3918;SDS011;1974;48.670;8.994;2023-06-10T06:40:59;2.70;;;1.90;;
3918;SDS011;1974;48.670;8.994;2023-06-10T06:43:28;3.08;;;2.10;;
3918;SDS011;1974;48.670;8.994;2023-06-10T06:45:57;2.67;;;2.47;;
3918;SDS011;1974;48.670;8.994;2023-06-10T06:48:24;4.13;;;3.03;;
3918;SDS011;1974;48.670;8.994;2023-06-10T06:50:51;3.58;;;2.72;;
3918;SDS011;1974;48.670;8.994;2023-06-10T06:53:17;2.65;;;2.30;;
3918;SDS011;1974;48.670;8.994;2023-06-10T06:55:44;6.50;;;2.42;;
3918;SDS011;1974;48.670;8.994;2023-06-10T06:58:11;2.63;;;2.33;;
3918;SDS011;1974;48.670;8.994;2023-06-10T07:00:38;2.60;;;2.40;;
3918;SDS011;1974;48.670;8.994;2023-06-10T07:03:06;2.35;;;2.15;;
3918;SDS011;1974;48.670;8.994;2023-06-10T07:05:32;3.17;;;2.50;;
3918;SDS011;1974;48.670;8.994;2023-06-10T07:07:59;3.38;;;2.88;;
3918;SDS011;1974;48.670;8.994;2023-06-10T07:10:26;2.33;;;1.98;;
3918;SDS011;1974;48.670;8.994;2023-06-10T07:12:54;2.60;;;2.40;;
3918;SDS011;1974;48.670;8.994;2023-06-10T07:15:21;1.90;;;1.80;;
3918;SDS011;1974;48.670;8.994;2023-06-10T07:17:48;2.85;;;2.05;;
3918;SDS011;1974;48.670;8.994;2023-06-10T07:20:16;1.83;;;1.60;;
3918;SDS011;1974;48.670;8.994;2023-06-10T07:22:43;4.70;;;3.45;;
3918;SDS011;1974;48.670;8.994;2023-06-10T07:25:10;2.90;;;2.53;;
3918;SDS011;1974;48.670;8.994;2023-06-10T07:27:37;2.40;;;2.30;;
3918;SDS011;1974;48.670;8.994;2023-06-10T07:30:04;2.03;;;1.83;;
3918;SDS011;1974;48.670;8.994;2023-06-10T07:32:33;3.20;;;2.58;;
3918;SDS011;1974;48.670;8.994;2023-06-10T07:35:00;4.25;;;2.85;;
3918;SDS011;1974;48.670;8.994;2023-06-10T07:37:28;3.05;;;2.70;;
3918;SDS011;1974;48.670;8.994;2023-06-10T07:39:55;2.67;;;1.95;;
3918;SDS011;1974;48.670;8.994;2023-06-10T07:42:22;3.33;;;2.45;;
3918;SDS011;1974;48.670;8.994;2023-06-10T07:44:49;2.22;;;2.03;;
3918;SDS011;1974;48.670;8.994;2023-06-10T07:47:16;2.15;;;2.05;;
3918;SDS011;1974;48.670;8.994;2023-06-10T07:49:43;2.20;;;2.00;;
3918;SDS011;1974;48.670;8.994;2023-06-10T07:52:09;1.80;;;1.70;;
3918;SDS011;1974;48.670;8.994;2023-06-10T07:54:38;2.38;;;2.17;;
3918;SDS011;1974;48.670;8.994;2023-06-10T07:57:04;2.17;;;1.88;;
3918;SDS011;1974;48.670;8.994;2023-06-10T07:59:32;1.80;;;1.70;;
3918;SDS011;1974;48.670;8.994;2023-06-10T08:01:59;1.63;;;1.52;;
3918;SDS011;1974;48.670;8.994;2023-06-10T08:04:26;2.00;;;1.80;;
3918;SDS011;1974;48.670;8.994;2023-06-10T08:06:53;2.00;;;1.80;;
3918;SDS011;1974;48.670;8.994;2023-06-10T08:09:20;2.22;;;2.05;;
3918;SDS011;1974;48.670;8.994;2023-06-10T08:11:49;1.70;;;1.60;;
3918;SDS011;1974;48.670;8.994;2023-06-10T08:14:16;2.05;;;1.70;;
3918;SDS011;1974;48.670;8.994;2023-06-10T08:16:43;1.70;;;1.60;;
3918;SDS011;1974;48.670;8.994;2023-06-10T08:19:10;1.85;;;1.75;;
3918;SDS011;1974;48.670;8.994;2023-06-10T08:21:37;1.58;;;1.48;;
3918;SDS011;1974;48.670;8.994;2023-06-10T08:24:05;4.15;;;1.70;;
3918;SDS011;1974;48.670;8.994;2023-06-10T08:26:32;2.03;;;1.92;;
3918;SDS011;1974;48.670;8.994;2023-06-10T08:29:00;2.78;;;2.08;;
3918;SDS011;1974;48.670;8.994;2023-06-10T08:31:27;1.77;;;1.63;;
3918;SDS011;1974;48.670;8.994;2023-06-10T08:33:53;1.25;;;1.17;;
3918;SDS011;1974;48.670;8.994;2023-06-10T08:36:20;1.70;;;1.60;;
3918;SDS011;1974;48.670;8.994;2023-06-10T08:38:47;1.70;;;1.60;;
3918;SDS011;1974;48.670;8.994;2023-06-10T08:41:14;1.70;;;1.60;;
3918;SDS011;1974;48.670;8.994;2023-06-10T08:43:44;1.90;;;1.80;;
3918;SDS011;1974;48.670;8.994;2023-06-10T08:46:15;1.73;;;1.63;;
3918;SDS011;1974;48.670;8.994;2023-06-10T08:48:42;2.33;;;2.13;;
3918;SDS011;1974;48.670;8.994;2023-06-10T08:51:10;2.00;;;1.90;;
3918;SDS011;1974;48.670;8.994;2023-06-10T08:53:38;1.70;;;1.60;;
3918;SDS011;1974;48.670;8.994;2023-06-10T08:56:12;2.30;;;2.20;;
3918;SDS011;1974;48.670;8.994;2023-06-10T08:58:40;2.50;;;2.20;;
3918;SDS011;1974;48.670;8.994;2023-06-10T09:01:08;1.92;;;1.75;;
3918;SDS011;1974;48.670;8.994;2023-06-10T09:03:37;2.10;;;1.90;;
3918;SDS011;1974;48.670;8.994;2023-06-10T09:06:05;1.88;;;1.77;;
3918;SDS011;1974;48.670;8.994;2023-06-10T09:08:33;2.35;;;2.13;;
3918;SDS011;1974;48.670;8.994;2023-06-10T09:11:00;1.85;;;1.75;;
3918;SDS011;1974;48.670;8.994;2023-06-10T09:13:27;1.75;;;1.65;;
3918;SDS011;1974;48.670;8.994;2023-06-10T09:15:54;2.25;;;1.42;;
3918;SDS011;1974;48.670;8.994;2023-06-10T09:18:25;1.52;;;1.42;;
3918;SDS011;1974;48.670;8.994;2023-06-10T09:20:54;1.58;;;1.48;;
3918;SDS011;1974;48.670;8.994;2023-06-10T09:23:21;1.40;;;1.30;;
3918;SDS011;1974;48.670;8.994;2023-06-10T09:25:53;2.75;;;1.63;;
3918;SDS011;1974;48.670;8.994;2023-06-10T09:28:22;1.33;;;1.20;;
3918;SDS011;1974;48.670;8.994;2023-06-10T09:30:49;1.98;;;1.80;;
3918;SDS011;1974;48.670;8.994;2023-06-10T09:33:27;1.98;;;1.80;;
3918;SDS011;1974;48.670;8.994;2023-06-10T09:35:55;2.65;;;2.05;;
3918;SDS011;1974;48.670;8.994;2023-06-10T09:38:29;3.33;;;2.03;;
3918;SDS011;1974;48.670;8.994;2023-06-10T09:40:56;1.55;;;1.45;;
3918;SDS011;1974;48.670;8.994;2023-06-10T09:43:23;1.60;;;1.50;;
3918;SDS011;1974;48.670;8.994;2023-06-10T09:46:05;2.38;;;2.17;;
3918;SDS011;1974;48.670;8.994;2023-06-10T09:48:34;2.45;;;2.25;;
3918;SDS011;1974;48.670;8.994;2023-06-10T09:51:02;1.63;;;1.52;;
3918;SDS011;1974;48.670;8.994;2023-06-10T09:53:35;2.92;;;2.15;;
3918;SDS011;1974;48.670;8.994;2023-06-10T09:56:01;1.95;;;1.85;;
3918;SDS011;1974;48.670;8.994;2023-06-10T09:58:35;2.45;;;2.30;;
3918;SDS011;1974;48.670;8.994;2023-06-10T10:01:06;3.20;;;2.47;;
3918;SDS011;1974;48.670;8.994;2023-06-10T10:03:42;2.28;;;2.08;;
3918;SDS011;1974;48.670;8.994;2023-06-10T10:06:12;2.28;;;1.90;;
3918;SDS011;1974;48.670;8.994;2023-06-10T10:08:39;2.00;;;1.90;;
3918;SDS011;1974;48.670;8.994;2023-06-10T10:11:05;2.38;;;2.20;;
3918;SDS011;1974;48.670;8.994;2023-06-10T10:13:33;2.15;;;1.85;;
3918;SDS011;1974;48.670;8.994;2023-06-10T10:16:01;2.45;;;2.28;;
3918;SDS011;1974;48.670;8.994;2023-06-10T10:18:32;2.53;;;2.33;;
3918;SDS011;1974;48.670;8.994;2023-06-10T10:21:03;2.38;;;2.15;;
3918;SDS011;1974;48.670;8.994;2023-06-10T10:23:36;2.75;;;2.22;;
3918;SDS011;1974;48.670;8.994;2023-06-10T10:26:10;2.03;;;1.92;;
3918;SDS011;1974;48.670;8.994;2023-06-10T10:28:38;2.22;;;2.03;;
3918;SDS011;1974;48.670;8.994;2023-06-10T10:31:08;2.67;;;2.35;;
3918;SDS011;1974;48.670;8.994;2023-06-10T10:33:40;1.73;;;1.60;;
3918;SDS011;1974;48.670;8.994;2023-06-10T10:36:14;1.75;;;1.65;;
3918;SDS011;1974;48.670;8.994;2023-06-10T10:38:43;2.22;;;2.05;;
3918;SDS011;1974;48.670;8.994;2023-06-10T10:41:13;1.67;;;1.58;;
3918;SDS011;1974;48.670;8.994;2023-06-10T10:43:41;2.65;;;2.45;;
3918;SDS011;1974;48.670;8.994;2023-06-10T10:46:11;2.40;;;2.20;;
3918;SDS011;1974;48.670;8.994;2023-06-10T10:48:39;1.60;;;1.50;;
3918;SDS011;1974;48.670;8.994;2023-06-10T10:51:07;2.10;;;2.00;;
3918;SDS011;1974;48.670;8.994;2023-06-10T10:53:34;2.13;;;2.00;;
3918;SDS011;1974;48.670;8.994;2023-06-10T10:56:05;5.63;;;2.08;;
3918;SDS011;1974;48.670;8.994;2023-06-10T10:58:33;2.63;;;2.42;;
3918;SDS011;1974;48.670;8.994;2023-06-10T11:01:09;2.22;;;2.05;;
3918;SDS011;1974;48.670;8.994;2023-06-10T11:03:42;1.70;;;1.60;;
3918;SDS011;1974;48.670;8.994;2023-06-10T11:06:12;2.15;;;2.03;;
3918;SDS011;1974;48.670;8.994;2023-06-10T11:08:45;1.80;;;1.70;;
3918;SDS011;1974;48.670;8.994;2023-06-10T11:11:22;2.17;;;2.08;;
3918;SDS011;1974;48.670;8.994;2023-06-10T11:16:52;1.73;;;1.63;;
3918;SDS011;1974;48.670;8.994;2023-06-10T11:19:33;1.73;;;1.50;;
3918;SDS011;1974;48.670;8.994;2023-06-10T11:22:01;2.50;;;2.40;;
3918;SDS011;1974;48.670;8.994;2023-06-10T11:24:29;1.70;;;1.60;;
3918;SDS011;1974;48.670;8.994;2023-06-10T11:29:58;2.15;;;1.95;;
3918;SDS011;1974;48.670;8.994;2023-06-10T11:32:43;2.05;;;1.95;;
3918;SDS011;1974;48.670;8.994;2023-06-10T11:35:11;3.15;;;2.45;;
3918;SDS011;1974;48.670;8.994;2023-06-10T11:37:38;2.85;;;2.10;;
3918;SDS011;1974;48.670;8.994;2023-06-10T11:40:06;2.63;;;2.42;;
3918;SDS011;1974;48.670;8.994;2023-06-10T11:42:39;2.03;;;1.75;;
3918;SDS011;1974;48.670;8.994;2023-06-10T11:45:07;5.05;;;2.45;;
3918;SDS011;1974;48.670;8.994;2023-06-10T11:47:34;1.98;;;1.88;;
3918;SDS011;1974;48.670;8.994;2023-06-10T11:50:01;2.15;;;1.95;;
3918;SDS011;1974;48.670;8.994;2023-06-10T11:52:28;2.25;;;1.63;;
3918;SDS011;1974;48.670;8.994;2023-06-10T11:54:57;2.15;;;1.95;;
3918;SDS011;1974;48.670;8.994;2023-06-10T11:57:23;1.83;;;1.73;;
3918;SDS011;1974;48.670;8.994;2023-06-10T11:59:51;2.38;;;2.20;;
3918;SDS011;1974;48.670;8.994;2023-06-10T12:02:18;2.15;;;1.95;;
3918;SDS011;1974;48.670;8.994;2023-06-10T12:04:47;2.15;;;2.05;;
3918;SDS011;1974;48.670;8.994;2023-06-10T12:07:17;2.72;;;2.55;;
3918;SDS011;1974;48.670;8.994;2023-06-10T12:09:44;2.65;;;1.83;;
3918;SDS011;1974;48.670;8.994;2023-06-10T12:12:11;2.30;;;2.20;;
3918;SDS011;1974;48.670;8.994;2023-06-10T12:14:52;2.67;;;2.42;;
3918;SDS011;1974;48.670;8.994;2023-06-10T12:17:21;2.08;;;1.98;;
3918;SDS011;1974;48.670;8.994;2023-06-10T12:19:49;2.20;;;2.00;;
3918;SDS011;1974;48.670;8.994;2023-06-10T12:22:16;1.98;;;1.88;;
3918;SDS011;1974;48.670;8.994;2023-06-10T12:24:44;2.35;;;2.15;;
3918;SDS011;1974;48.670;8.994;2023-06-10T12:27:12;3.03;;;2.25;;
3918;SDS011;1974;48.670;8.994;2023-06-10T12:29:39;2.13;;;1.95;;
3918;SDS011;1974;48.670;8.994;2023-06-10T12:32:17;2.00;;;1.90;;
3918;SDS011;1974;48.670;8.994;2023-06-10T12:34:45;2.67;;;2.15;;
3918;SDS011;1974;48.670;8.994;2023-06-10T12:37:12;3.05;;;2.75;;
3918;SDS011;1974;48.670;8.994;2023-06-10T12:39:39;2.20;;;2.00;;
3918;SDS011;1974;48.670;8.994;2023-06-10T12:42:08;2.35;;;2.00;;
3918;SDS011;1974;48.670;8.994;2023-06-10T12:44:38;2.15;;;1.95;;
3918;SDS011;1974;48.670;8.994;2023-06-10T12:47:09;3.90;;;2.13;;
3918;SDS011;1974;48.670;8.994;2023-06-10T12:49:38;2.42;;;2.22;;
3918;SDS011;1974;48.670;8.994;2023-06-10T12:52:05;2.00;;;1.88;;
3918;SDS011;1974;48.670;8.994;2023-06-10T12:54:33;2.47;;;2.28;;
3918;SDS011;1974;48.670;8.994;2023-06-10T12:57:01;1.55;;;1.50;;
3918;SDS011;1974;48.670;8.994;2023-06-10T12:59:28;2.75;;;1.83;;
3918;SDS011;1974;48.670;8.994;2023-06-10T13:01:56;2.15;;;2.03;;
3918;SDS011;1974;48.670;8.994;2023-06-10T13:04:23;4.38;;;1.98;;
3918;SDS011;1974;48.670;8.994;2023-06-10T13:06:51;2.25;;;2.05;;
3918;SDS011;1974;48.670;8.994;2023-06-10T13:09:18;1.83;;;1.73;;
3918;SDS011;1974;48.670;8.994;2023-06-10T13:11:45;4.93;;;2.33;;
3918;SDS011;1974;48.670;8.994;2023-06-10T13:14:12;2.45;;;2.25;;
3918;SDS011;1974;48.670;8.994;2023-06-10T13:16:38;1.83;;;1.73;;
3918;SDS011;1974;48.670;8.994;2023-06-10T13:19:05;2.17;;;2.08;;
3918;SDS011;1974;48.670;8.994;2023-06-10T13:21:32;1.65;;;1.55;;
3918;SDS011;1974;48.670;8.994;2023-06-10T13:24:01;3.03;;;2.38;;
3918;SDS011;1974;48.670;8.994;2023-06-10T13:26:28;2.95;;;2.55;;
3918;SDS011;1974;48.670;8.994;2023-06-10T13:28:55;2.35;;;2.10;;
3918;SDS011;1974;48.670;8.994;2023-06-10T13:31:22;2.13;;;1.92;;
3918;SDS011;1974;48.670;8.994;2023-06-10T13:33:49;3.22;;;2.20;;
3918;SDS011;1974;48.670;8.994;2023-06-10T13:36:16;3.60;;;2.25;;
3918;SDS011;1974;48.670;8.994;2023-06-10T13:38:42;2.35;;;1.92;;
3918;SDS011;1974;48.670;8.994;2023-06-10T13:41:11;2.45;;;2.20;;
3918;SDS011;1974;48.670;8.994;2023-06-10T13:43:38;3.20;;;2.58;;
3918;SDS011;1974;48.670;8.994;2023-06-10T13:46:05;2.28;;;2.03;;
3918;SDS011;1974;48.670;8.994;2023-06-10T13:48:32;2.42;;;2.10;;
3918;SDS011;1974;48.670;8.994;2023-06-10T13:50:59;2.20;;;2.10;;
3918;SDS011;1974;48.670;8.994;2023-06-10T13:53:26;2.28;;;2.03;;
3918;SDS011;1974;48.670;8.994;2023-06-10T13:55:52;1.75;;;1.65;;
3918;SDS011;1974;48.670;8.994;2023-06-10T13:58:20;2.35;;;2.22;;
3918;SDS011;1974;48.670;8.994;2023-06-10T14:00:47;2.72;;;2.42;;
3918;SDS011;1974;48.670;8.994;2023-06-10T14:03:14;2.70;;;2.50;;
3918;SDS011;1974;48.670;8.994;2023-06-10T14:05:41;2.55;;;1.92;;
3918;SDS011;1974;48.670;8.994;2023-06-10T14:08:08;2.28;;;2.08;;
3918;SDS011;1974;48.670;8.994;2023-06-10T14:10:34;2.45;;;2.13;;
3918;SDS011;1974;48.670;8.994;2023-06-10T14:13:01;1.70;;;1.60;;
3918;SDS011;1974;48.670;8.994;2023-06-10T14:15:29;2.05;;;1.95;;
3918;SDS011;1974;48.670;8.994;2023-06-10T14:17:57;4.50;;;2.38;;
3918;SDS011;1974;48.670;8.994;2023-06-10T14:20:24;3.40;;;2.22;;
3918;SDS011;1974;48.670;8.994;2023-06-10T14:22:51;2.90;;;2.42;;
3918;SDS011;1974;48.670;8.994;2023-06-10T14:25:18;2.60;;;2.33;;
3918;SDS011;1974;48.670;8.994;2023-06-10T14:27:45;2.15;;;2.05;;
3918;SDS011;1974;48.670;8.994;2023-06-10T14:30:12;2.55;;;2.35;;
3918;SDS011;1974;48.670;8.994;2023-06-10T14:32:41;2.00;;;1.77;;
3918;SDS011;1974;48.670;8.994;2023-06-10T14:35:08;2.38;;;2.17;;
3918;SDS011;1974;48.670;8.994;2023-06-10T14:37:35;2.25;;;2.10;;
3918;SDS011;1974;48.670;8.994;2023-06-10T14:40:03;2.20;;;2.00;;
3918;SDS011;1974;48.670;8.994;2023-06-10T14:42:30;1.85;;;1.75;;
3918;SDS011;1974;48.670;8.994;2023-06-10T14:44:57;2.35;;;2.15;;
3918;SDS011;1974;48.670;8.994;2023-06-10T14:47:24;1.98;;;1.80;;
3918;SDS011;1974;48.670;8.994;2023-06-10T14:49:52;2.05;;;1.85;;
3918;SDS011;1974;48.670;8.994;2023-06-10T14:52:19;2.90;;;2.00;;
3918;SDS011;1974;48.670;8.994;2023-06-10T14:54:46;1.88;;;1.77;;
3918;SDS011;1974;48.670;8.994;2023-06-10T14:57:12;1.92;;;1.80;;
3918;SDS011;1974;48.670;8.994;2023-06-10T14:59:39;1.80;;;1.70;;
3918;SDS011;1974;48.670;8.994;2023-06-10T15:02:06;2.20;;;1.55;;
3918;SDS011;1974;48.670;8.994;2023-06-10T15:04:33;2.55;;;2.35;;
3918;SDS011;1974;48.670;8.994;2023-06-10T15:07:01;2.45;;;2.25;;
3918;SDS011;1974;48.670;8.994;2023-06-10T15:09:28;2.03;;;1.92;;
3918;SDS011;1974;48.670;8.994;2023-06-10T15:11:54;2.60;;;2.40;;
3918;SDS011;1974;48.670;8.994;2023-06-10T15:14:21;2.45;;;1.90;;
3918;SDS011;1974;48.670;8.994;2023-06-10T15:16:48;2.30;;;2.20;;
3918;SDS011;1974;48.670;8.994;2023-06-10T15:19:15;2.38;;;2.17;;
3918;SDS011;1974;48.670;8.994;2023-06-10T15:21:41;3.55;;;2.22;;
3918;SDS011;1974;48.670;8.994;2023-06-10T15:24:10;2.55;;;2.35;;